Main page
METAR-TAF:

METAR-TAF

Airports :

Roscoe Turner Airport

Corinth, Mississippi, United States

latitude: 34-54-54N, longitude: 088-36-13W, elevation: 426 ft

Current weather observation

The report was made 11 minutes ago, at 21:55 UTC
Wind 8 mph from the North/Northeast
Temperature 64°F
Humidity 32%
Pressure 30.00 in. Hg
Visibility: 10 miles
Clear sky

METAR: KCRX 012155Z AUTO 02007KT 10SM CLR 18/01 A3000 RMK AO2

Time: 17:06 (22:06 UTC)


TAF: missing

Weather observations and forecasts of more than 4000 airports (METAR and TAF reports).

The available stations are represented by yellow and red dots on the map.

Hover mouse over dot to see the name of the station.

Then click to see weather observations and forecasts.

To change the map : click on the green buttons with a black cross to zoom in, on the green button with a dash to zoom out, or on the green arrows for adjacent maps.


METAR-TAF: